sensor_id;sensor_type;location;lat;lon;timestamp;P1;durP1;ratioP1;P2;durP2;ratioP2
58101;SDS011;52034;51.926;6.320;2022-12-20T00:00:50;7.63;;;6.20;;
58101;SDS011;52034;51.926;6.320;2022-12-20T00:01:51;9.32;;;6.47;;
58101;SDS011;52034;51.926;6.320;2022-12-20T00:02:51;8.07;;;6.03;;
58101;SDS011;52034;51.926;6.320;2022-12-20T00:03:53;8.07;;;6.67;;
58101;SDS011;52034;51.926;6.320;2022-12-20T00:04:55;7.10;;;5.68;;
58101;SDS011;52034;51.926;6.320;2022-12-20T00:05:55;7.63;;;6.33;;
58101;SDS011;52034;51.926;6.320;2022-12-20T00:06:55;7.23;;;5.43;;
58101;SDS011;52034;51.926;6.320;2022-12-20T00:07:56;8.13;;;6.33;;
58101;SDS011;52034;51.926;6.320;2022-12-20T00:08:58;9.53;;;6.87;;
58101;SDS011;52034;51.926;6.320;2022-12-20T00:09:59;7.57;;;6.63;;
58101;SDS011;52034;51.926;6.320;2022-12-20T00:11:00;10.03;;;6.30;;
58101;SDS011;52034;51.926;6.320;2022-12-20T00:12:01;8.05;;;6.32;;
58101;SDS011;52034;51.926;6.320;2022-12-20T00:13:02;7.60;;;6.80;;
58101;SDS011;52034;51.926;6.320;2022-12-20T00:14:02;9.37;;;6.67;;
58101;SDS011;52034;51.926;6.320;2022-12-20T00:15:03;7.13;;;5.93;;
58101;SDS011;52034;51.926;6.320;2022-12-20T00:16:08;8.07;;;6.20;;
58101;SDS011;52034;51.926;6.320;2022-12-20T00:17:11;7.78;;;6.53;;
58101;SDS011;52034;51.926;6.320;2022-12-20T00:18:11;8.47;;;6.67;;
58101;SDS011;52034;51.926;6.320;2022-12-20T00:19:11;8.83;;;6.40;;
58101;SDS011;52034;51.926;6.320;2022-12-20T00:20:12;7.73;;;6.30;;
58101;SDS011;52034;51.926;6.320;2022-12-20T00:21:13;7.93;;;6.03;;
58101;SDS011;52034;51.926;6.320;2022-12-20T00:22:14;7.07;;;6.38;;
58101;SDS011;52034;51.926;6.320;2022-12-20T00:23:14;10.17;;;6.27;;
58101;SDS011;52034;51.926;6.320;2022-12-20T00:24:14;10.07;;;6.17;;
58101;SDS011;52034;51.926;6.320;2022-12-20T00:25:15;8.33;;;6.63;;
58101;SDS011;52034;51.926;6.320;2022-12-20T00:26:16;13.47;;;6.13;;
58101;SDS011;52034;51.926;6.320;2022-12-20T00:27:19;9.95;;;7.15;;
58101;SDS011;52034;51.926;6.320;2022-12-20T00:28:19;6.53;;;5.93;;
58101;SDS011;52034;51.926;6.320;2022-12-20T00:29:20;9.90;;;8.33;;
58101;SDS011;52034;51.926;6.320;2022-12-20T00:30:20;7.07;;;5.90;;
58101;SDS011;52034;51.926;6.320;2022-12-20T00:31:22;6.23;;;5.43;;
58101;SDS011;52034;51.926;6.320;2022-12-20T00:32:23;8.77;;;6.45;;
58101;SDS011;52034;51.926;6.320;2022-12-20T00:33:24;7.77;;;6.03;;
58101;SDS011;52034;51.926;6.320;2022-12-20T00:34:24;8.23;;;5.97;;
58101;SDS011;52034;51.926;6.320;2022-12-20T00:35:25;9.47;;;6.37;;
58101;SDS011;52034;51.926;6.320;2022-12-20T00:36:26;6.77;;;5.63;;
58101;SDS011;52034;51.926;6.320;2022-12-20T00:37:27;7.15;;;6.10;;
58101;SDS011;52034;51.926;6.320;2022-12-20T00:38:28;6.20;;;5.60;;
58101;SDS011;52034;51.926;6.320;2022-12-20T00:39:28;6.93;;;6.23;;
58101;SDS011;52034;51.926;6.320;2022-12-20T00:40:29;6.17;;;5.40;;
58101;SDS011;52034;51.926;6.320;2022-12-20T00:41:30;11.07;;;6.23;;
58101;SDS011;52034;51.926;6.320;2022-12-20T00:42:32;6.03;;;5.43;;
58101;SDS011;52034;51.926;6.320;2022-12-20T00:43:32;6.13;;;5.53;;
58101;SDS011;52034;51.926;6.320;2022-12-20T00:44:33;6.22;;;5.50;;
58101;SDS011;52034;51.926;6.320;2022-12-20T00:45:33;6.17;;;5.57;;
58101;SDS011;52034;51.926;6.320;2022-12-20T00:46:34;6.43;;;5.77;;
58101;SDS011;52034;51.926;6.320;2022-12-20T00:47:34;7.30;;;6.13;;
58101;SDS011;52034;51.926;6.320;2022-12-20T00:48:35;6.57;;;5.57;;
58101;SDS011;52034;51.926;6.320;2022-12-20T00:49:35;9.13;;;5.80;;
58101;SDS011;52034;51.926;6.320;2022-12-20T00:50:35;7.93;;;6.33;;
58101;SDS011;52034;51.926;6.320;2022-12-20T00:51:36;9.43;;;5.97;;
58101;SDS011;52034;51.926;6.320;2022-12-20T00:52:36;7.93;;;6.07;;
58101;SDS011;52034;51.926;6.320;2022-12-20T00:53:37;6.93;;;6.23;;
58101;SDS011;52034;51.926;6.320;2022-12-20T00:54:38;8.73;;;6.03;;
58101;SDS011;52034;51.926;6.320;2022-12-20T00:55:42;9.70;;;5.83;;
58101;SDS011;52034;51.926;6.320;2022-12-20T00:56:43;7.95;;;6.43;;
58101;SDS011;52034;51.926;6.320;2022-12-20T00:57:44;8.33;;;6.43;;
58101;SDS011;52034;51.926;6.320;2022-12-20T00:58:44;6.43;;;5.83;;
58101;SDS011;52034;51.926;6.320;2022-12-20T00:59:45;7.20;;;6.00;;
58101;SDS011;52034;51.926;6.320;2022-12-20T01:00:45;6.67;;;5.97;;
58101;SDS011;52034;51.926;6.320;2022-12-20T01:01:46;7.72;;;6.30;;
58101;SDS011;52034;51.926;6.320;2022-12-20T01:02:46;7.97;;;6.43;;
58101;SDS011;52034;51.926;6.320;2022-12-20T01:03:47;8.33;;;5.97;;
58101;SDS011;52034;51.926;6.320;2022-12-20T01:04:48;7.05;;;6.13;;
58101;SDS011;52034;51.926;6.320;2022-12-20T01:05:50;8.00;;;6.00;;
58101;SDS011;52034;51.926;6.320;2022-12-20T01:06:52;6.82;;;6.03;;
58101;SDS011;52034;51.926;6.320;2022-12-20T01:07:52;7.83;;;5.37;;
58101;SDS011;52034;51.926;6.320;2022-12-20T01:08:53;7.93;;;6.00;;
58101;SDS011;52034;51.926;6.320;2022-12-20T01:09:54;6.13;;;5.53;;
58101;SDS011;52034;51.926;6.320;2022-12-20T01:11:08;6.07;;;5.47;;
58101;SDS011;52034;51.926;6.320;2022-12-20T01:12:14;6.32;;;5.25;;
58101;SDS011;52034;51.926;6.320;2022-12-20T01:13:14;6.47;;;5.07;;
58101;SDS011;52034;51.926;6.320;2022-12-20T01:14:15;9.93;;;5.87;;
58101;SDS011;52034;51.926;6.320;2022-12-20T01:15:16;6.70;;;5.43;;
58101;SDS011;52034;51.926;6.320;2022-12-20T01:16:18;6.83;;;5.80;;
58101;SDS011;52034;51.926;6.320;2022-12-20T01:17:18;6.82;;;5.28;;
58101;SDS011;52034;51.926;6.320;2022-12-20T01:18:19;6.63;;;5.77;;
58101;SDS011;52034;51.926;6.320;2022-12-20T01:19:19;5.63;;;4.70;;
58101;SDS011;52034;51.926;6.320;2022-12-20T01:20:20;6.87;;;5.57;;
58101;SDS011;52034;51.926;6.320;2022-12-20T01:21:21;6.57;;;5.37;;
58101;SDS011;52034;51.926;6.320;2022-12-20T01:22:22;6.47;;;5.60;;
58101;SDS011;52034;51.926;6.320;2022-12-20T01:23:23;6.30;;;5.43;;
58101;SDS011;52034;51.926;6.320;2022-12-20T01:24:23;5.30;;;4.83;;
58101;SDS011;52034;51.926;6.320;2022-12-20T01:25:24;8.30;;;5.57;;
58101;SDS011;52034;51.926;6.320;2022-12-20T01:26:25;5.47;;;5.03;;
58101;SDS011;52034;51.926;6.320;2022-12-20T01:27:27;6.22;;;5.63;;
58101;SDS011;52034;51.926;6.320;2022-12-20T01:28:28;6.00;;;5.50;;
58101;SDS011;52034;51.926;6.320;2022-12-20T01:29:28;8.10;;;5.73;;
58101;SDS011;52034;51.926;6.320;2022-12-20T01:30:29;9.35;;;5.65;;
58101;SDS011;52034;51.926;6.320;2022-12-20T01:31:30;6.07;;;5.47;;
58101;SDS011;52034;51.926;6.320;2022-12-20T01:32:30;7.30;;;5.63;;
58101;SDS011;52034;51.926;6.320;2022-12-20T01:33:30;7.97;;;5.23;;
58101;SDS011;52034;51.926;6.320;2022-12-20T01:34:31;6.67;;;4.87;;
58101;SDS011;52034;51.926;6.320;2022-12-20T01:35:31;6.33;;;5.30;;
58101;SDS011;52034;51.926;6.320;2022-12-20T01:36:32;7.23;;;5.13;;
58101;SDS011;52034;51.926;6.320;2022-12-20T01:37:34;7.00;;;5.43;;
58101;SDS011;52034;51.926;6.320;2022-12-20T01:38:34;5.40;;;4.90;;
58101;SDS011;52034;51.926;6.320;2022-12-20T01:39:35;6.47;;;5.50;;
58101;SDS011;52034;51.926;6.320;2022-12-20T01:40:37;6.33;;;5.40;;
58101;SDS011;52034;51.926;6.320;2022-12-20T01:41:38;5.50;;;4.97;;
58101;SDS011;52034;51.926;6.320;2022-12-20T01:42:39;7.88;;;5.20;;
58101;SDS011;52034;51.926;6.320;2022-12-20T01:43:56;5.80;;;5.30;;
58101;SDS011;52034;51.926;6.320;2022-12-20T01:44:58;7.47;;;5.80;;
58101;SDS011;52034;51.926;6.320;2022-12-20T01:45:59;6.53;;;5.63;;
58101;SDS011;52034;51.926;6.320;2022-12-20T01:46:59;8.57;;;4.93;;
58101;SDS011;52034;51.926;6.320;2022-12-20T01:48:00;5.97;;;5.13;;
58101;SDS011;52034;51.926;6.320;2022-12-20T01:50:05;5.95;;;5.35;;
58101;SDS011;52034;51.926;6.320;2022-12-20T01:51:07;5.53;;;4.68;;
58101;SDS011;52034;51.926;6.320;2022-12-20T01:52:12;6.70;;;5.68;;
58101;SDS011;52034;51.926;6.320;2022-12-20T01:53:17;6.82;;;5.13;;
58101;SDS011;52034;51.926;6.320;2022-12-20T01:54:23;8.45;;;5.03;;
58101;SDS011;52034;51.926;6.320;2022-12-20T01:55:29;5.10;;;4.57;;
58101;SDS011;52034;51.926;6.320;2022-12-20T01:56:31;5.93;;;5.38;;
58101;SDS011;52034;51.926;6.320;2022-12-20T01:57:37;6.57;;;5.10;;
58101;SDS011;52034;51.926;6.320;2022-12-20T01:58:39;5.32;;;4.85;;
58101;SDS011;52034;51.926;6.320;2022-12-20T02:00:44;8.45;;;5.68;;
58101;SDS011;52034;51.926;6.320;2022-12-20T02:01:45;5.57;;;4.65;;
58101;SDS011;52034;51.926;6.320;2022-12-20T02:02:46;6.83;;;4.67;;
58101;SDS011;52034;51.926;6.320;2022-12-20T02:03:48;5.82;;;5.15;;
58101;SDS011;52034;51.926;6.320;2022-12-20T02:04:51;9.27;;;5.07;;
58101;SDS011;52034;51.926;6.320;2022-12-20T02:05:51;6.10;;;5.30;;
58101;SDS011;52034;51.926;6.320;2022-12-20T02:06:52;5.33;;;4.83;;
58101;SDS011;52034;51.926;6.320;2022-12-20T02:07:53;7.40;;;5.10;;
58101;SDS011;52034;51.926;6.320;2022-12-20T02:08:56;6.60;;;4.78;;
58101;SDS011;52034;51.926;6.320;2022-12-20T02:09:59;5.63;;;4.80;;
58101;SDS011;52034;51.926;6.320;2022-12-20T02:11:14;7.55;;;4.82;;
58101;SDS011;52034;51.926;6.320;2022-12-20T02:12:24;5.82;;;5.20;;
58101;SDS011;52034;51.926;6.320;2022-12-20T02:13:42;5.00;;;4.60;;
58101;SDS011;52034;51.926;6.320;2022-12-20T02:16:26;5.45;;;4.20;;
58101;SDS011;52034;51.926;6.320;2022-12-20T02:18:45;7.80;;;4.97;;
58101;SDS011;52034;51.926;6.320;2022-12-20T02:22:36;7.25;;;4.65;;
58101;SDS011;52034;51.926;6.320;2022-12-20T02:23:43;5.10;;;4.32;;
58101;SDS011;52034;51.926;6.320;2022-12-20T02:26:21;13.38;;;3.70;;
58101;SDS011;52034;51.926;6.320;2022-12-20T02:29:01;7.20;;;4.50;;
58101;SDS011;52034;51.926;6.320;2022-12-20T02:31:11;7.93;;;4.68;;
58101;SDS011;52034;51.926;6.320;2022-12-20T02:32:19;7.03;;;4.53;;
58101;SDS011;52034;51.926;6.320;2022-12-20T02:33:23;5.20;;;4.70;;
58101;SDS011;52034;51.926;6.320;2022-12-20T02:34:28;9.27;;;4.82;;
58101;SDS011;52034;51.926;6.320;2022-12-20T02:35:33;5.10;;;4.60;;
58101;SDS011;52034;51.926;6.320;2022-12-20T02:36:36;6.57;;;5.20;;
58101;SDS011;52034;51.926;6.320;2022-12-20T02:37:45;8.27;;;4.97;;
58101;SDS011;52034;51.926;6.320;2022-12-20T02:38:48;4.50;;;4.03;;
58101;SDS011;52034;51.926;6.320;2022-12-20T02:39:51;5.65;;;5.03;;
58101;SDS011;52034;51.926;6.320;2022-12-20T02:40:56;5.97;;;4.57;;
58101;SDS011;52034;51.926;6.320;2022-12-20T02:43:16;10.10;;;5.57;;
58101;SDS011;52034;51.926;6.320;2022-12-20T02:44:37;7.50;;;5.18;;
58101;SDS011;52034;51.926;6.320;2022-12-20T02:46:02;8.00;;;5.03;;
58101;SDS011;52034;51.926;6.320;2022-12-20T02:47:04;8.63;;;4.73;;
58101;SDS011;52034;51.926;6.320;2022-12-20T02:48:09;6.63;;;5.40;;
58101;SDS011;52034;51.926;6.320;2022-12-20T02:49:12;6.95;;;5.60;;
58101;SDS011;52034;51.926;6.320;2022-12-20T02:50:17;8.90;;;5.28;;
58101;SDS011;52034;51.926;6.320;2022-12-20T02:51:21;6.95;;;6.15;;
58101;SDS011;52034;51.926;6.320;2022-12-20T02:52:25;5.68;;;5.10;;
58101;SDS011;52034;51.926;6.320;2022-12-20T02:53:30;6.97;;;5.72;;
58101;SDS011;52034;51.926;6.320;2022-12-20T02:54:33;7.22;;;5.75;;
58101;SDS011;52034;51.926;6.320;2022-12-20T02:58:00;8.45;;;5.80;;
58101;SDS011;52034;51.926;6.320;2022-12-20T02:59:07;5.05;;;4.57;;
58101;SDS011;52034;51.926;6.320;2022-12-20T03:00:14;5.70;;;4.97;;
58101;SDS011;52034;51.926;6.320;2022-12-20T03:01:21;7.25;;;6.18;;
58101;SDS011;52034;51.926;6.320;2022-12-20T03:02:27;6.47;;;5.88;;
58101;SDS011;52034;51.926;6.320;2022-12-20T03:03:49;8.20;;;6.00;;
58101;SDS011;52034;51.926;6.320;2022-12-20T03:04:50;6.07;;;5.47;;
58101;SDS011;52034;51.926;6.320;2022-12-20T03:05:54;8.57;;;6.13;;
58101;SDS011;52034;51.926;6.320;2022-12-20T03:06:59;7.25;;;5.97;;
58101;SDS011;52034;51.926;6.320;2022-12-20T03:08:04;10.18;;;5.57;;
58101;SDS011;52034;51.926;6.320;2022-12-20T03:09:05;6.53;;;5.60;;
58101;SDS011;52034;51.926;6.320;2022-12-20T03:10:09;8.43;;;5.75;;
58101;SDS011;52034;51.926;6.320;2022-12-20T03:11:09;6.93;;;5.90;;
58101;SDS011;52034;51.926;6.320;2022-12-20T03:12:10;6.30;;;5.27;;
58101;SDS011;52034;51.926;6.320;2022-12-20T03:13:12;8.85;;;6.60;;
58101;SDS011;52034;51.926;6.320;2022-12-20T03:14:20;8.57;;;5.80;;
58101;SDS011;52034;51.926;6.320;2022-12-20T03:15:23;9.40;;;6.15;;
58101;SDS011;52034;51.926;6.320;2022-12-20T03:16:26;7.63;;;6.15;;
58101;SDS011;52034;51.926;6.320;2022-12-20T03:17:26;7.00;;;5.70;;
58101;SDS011;52034;51.926;6.320;2022-12-20T03:18:27;8.10;;;5.93;;
58101;SDS011;52034;51.926;6.320;2022-12-20T03:19:27;6.83;;;5.67;;
58101;SDS011;52034;51.926;6.320;2022-12-20T03:20:28;7.75;;;5.72;;
58101;SDS011;52034;51.926;6.320;2022-12-20T03:21:29;8.60;;;6.00;;
58101;SDS011;52034;51.926;6.320;2022-12-20T03:22:30;7.33;;;6.03;;
58101;SDS011;52034;51.926;6.320;2022-12-20T03:23:30;9.97;;;5.90;;
58101;SDS011;52034;51.926;6.320;2022-12-20T03:24:31;6.32;;;5.45;;
58101;SDS011;52034;51.926;6.320;2022-12-20T03:25:32;9.02;;;5.82;;
58101;SDS011;52034;51.926;6.320;2022-12-20T03:26:34;6.20;;;5.15;;
58101;SDS011;52034;51.926;6.320;2022-12-20T03:27:34;7.93;;;5.60;;
58101;SDS011;52034;51.926;6.320;2022-12-20T03:29:38;7.93;;;5.85;;
58101;SDS011;52034;51.926;6.320;2022-12-20T03:30:38;8.73;;;5.77;;
58101;SDS011;52034;51.926;6.320;2022-12-20T03:31:39;7.73;;;5.93;;
58101;SDS011;52034;51.926;6.320;2022-12-20T03:32:39;8.33;;;6.00;;
58101;SDS011;52034;51.926;6.320;2022-12-20T03:33:41;6.18;;;5.22;;
58101;SDS011;52034;51.926;6.320;2022-12-20T03:34:42;9.33;;;6.53;;
58101;SDS011;52034;51.926;6.320;2022-12-20T03:36:44;9.20;;;6.47;;
58101;SDS011;52034;51.926;6.320;2022-12-20T03:37:44;6.37;;;5.67;;
58101;SDS011;52034;51.926;6.320;2022-12-20T03:38:45;8.77;;;6.33;;
58101;SDS011;52034;51.926;6.320;2022-12-20T03:39:46;10.30;;;6.63;;
58101;SDS011;52034;51.926;6.320;2022-12-20T03:40:46;7.83;;;5.87;;
58101;SDS011;52034;51.926;6.320;2022-12-20T03:41:50;7.47;;;6.70;;
58101;SDS011;52034;51.926;6.320;2022-12-20T03:42:52;8.95;;;6.55;;
58101;SDS011;52034;51.926;6.320;2022-12-20T03:43:52;7.67;;;6.60;;
58101;SDS011;52034;51.926;6.320;2022-12-20T03:46:58;7.18;;;6.47;;
58101;SDS011;52034;51.926;6.320;2022-12-20T03:47:58;8.23;;;6.93;;
58101;SDS011;52034;51.926;6.320;2022-12-20T03:49:01;8.57;;;6.30;;
58101;SDS011;52034;51.926;6.320;2022-12-20T03:50:03;7.45;;;6.50;;
58101;SDS011;52034;51.926;6.320;2022-12-20T03:51:07;7.68;;;6.72;;
58101;SDS011;52034;51.926;6.320;2022-12-20T03:52:10;8.65;;;6.97;;
58101;SDS011;52034;51.926;6.320;2022-12-20T03:53:12;7.68;;;6.95;;
58101;SDS011;52034;51.926;6.320;2022-12-20T03:54:12;8.60;;;6.90;;
58101;SDS011;52034;51.926;6.320;2022-12-20T03:55:31;7.60;;;6.47;;
58101;SDS011;52034;51.926;6.320;2022-12-20T03:56:33;9.35;;;6.95;;
58101;SDS011;52034;51.926;6.320;2022-12-20T03:57:33;8.07;;;7.20;;
58101;SDS011;52034;51.926;6.320;2022-12-20T03:58:33;8.30;;;6.87;;
58101;SDS011;52034;51.926;6.320;2022-12-20T03:59:34;9.53;;;6.53;;
58101;SDS011;52034;51.926;6.320;2022-12-20T04:00:35;10.98;;;7.43;;
58101;SDS011;52034;51.926;6.320;2022-12-20T04:01:54;7.82;;;6.72;;
58101;SDS011;52034;51.926;6.320;2022-12-20T04:02:55;7.77;;;6.40;;
58101;SDS011;52034;51.926;6.320;2022-12-20T04:03:56;8.45;;;6.70;;
58101;SDS011;52034;51.926;6.320;2022-12-20T04:04:56;8.53;;;6.87;;
58101;SDS011;52034;51.926;6.320;2022-12-20T04:05:56;7.60;;;6.90;;
58101;SDS011;52034;51.926;6.320;2022-12-20T04:06:58;10.80;;;6.93;;
58101;SDS011;52034;51.926;6.320;2022-12-20T04:07:59;10.75;;;6.85;;
58101;SDS011;52034;51.926;6.320;2022-12-20T04:08:59;10.93;;;7.23;;
58101;SDS011;52034;51.926;6.320;2022-12-20T04:10:04;10.60;;;7.35;;
58101;SDS011;52034;51.926;6.320;2022-12-20T04:11:06;10.43;;;7.45;;
58101;SDS011;52034;51.926;6.320;2022-12-20T04:12:20;7.55;;;6.47;;
58101;SDS011;52034;51.926;6.320;2022-12-20T04:13:21;8.07;;;6.77;;
58101;SDS011;52034;51.926;6.320;2022-12-20T04:14:21;7.10;;;6.40;;
58101;SDS011;52034;51.926;6.320;2022-12-20T04:15:22;8.88;;;6.95;;
58101;SDS011;52034;51.926;6.320;2022-12-20T04:16:24;8.30;;;6.80;;
58101;SDS011;52034;51.926;6.320;2022-12-20T04:17:28;8.85;;;6.50;;
58101;SDS011;52034;51.926;6.320;2022-12-20T04:18:29;8.00;;;6.25;;
58101;SDS011;52034;51.926;6.320;2022-12-20T04:19:30;8.48;;;6.60;;
58101;SDS011;52034;51.926;6.320;2022-12-20T04:20:31;9.63;;;6.70;;
58101;SDS011;52034;51.926;6.320;2022-12-20T04:21:43;10.23;;;6.75;;
58101;SDS011;52034;51.926;6.320;2022-12-20T04:22:45;9.03;;;6.87;;
58101;SDS011;52034;51.926;6.320;2022-12-20T04:23:46;6.68;;;5.90;;
58101;SDS011;52034;51.926;6.320;2022-12-20T04:24:46;8.30;;;6.70;;
58101;SDS011;52034;51.926;6.320;2022-12-20T04:25:57;7.15;;;6.40;;
58101;SDS011;52034;51.926;6.320;2022-12-20T04:26:57;11.80;;;6.80;;
58101;SDS011;52034;51.926;6.320;2022-12-20T04:27:58;6.60;;;5.83;;
58101;SDS011;52034;51.926;6.320;2022-12-20T04:28:58;10.03;;;6.50;;
58101;SDS011;52034;51.926;6.320;2022-12-20T04:29:59;7.88;;;6.35;;
58101;SDS011;52034;51.926;6.320;2022-12-20T04:31:00;8.20;;;6.67;;
58101;SDS011;52034;51.926;6.320;2022-12-20T04:32:03;8.88;;;6.13;;
58101;SDS011;52034;51.926;6.320;2022-12-20T04:33:03;8.13;;;5.73;;
58101;SDS011;52034;51.926;6.320;2022-12-20T04:34:04;10.40;;;6.07;;
58101;SDS011;52034;51.926;6.320;2022-12-20T04:35:06;9.95;;;6.13;;
58101;SDS011;52034;51.926;6.320;2022-12-20T04:36:12;8.80;;;6.15;;
58101;SDS011;52034;51.926;6.320;2022-12-20T04:37:14;9.10;;;5.70;;
58101;SDS011;52034;51.926;6.320;2022-12-20T04:38:25;8.68;;;5.93;;
58101;SDS011;52034;51.926;6.320;2022-12-20T04:39:26;7.40;;;6.20;;
58101;SDS011;52034;51.926;6.320;2022-12-20T04:40:51;7.82;;;5.78;;
58101;SDS011;52034;51.926;6.320;2022-12-20T04:41:53;7.05;;;6.35;;
58101;SDS011;52034;51.926;6.320;2022-12-20T04:42:54;6.20;;;5.60;;
58101;SDS011;52034;51.926;6.320;2022-12-20T04:43:55;7.57;;;6.00;;
58101;SDS011;52034;51.926;6.320;2022-12-20T04:45:00;6.65;;;5.50;;
58101;SDS011;52034;51.926;6.320;2022-12-20T04:46:03;6.38;;;5.88;;
58101;SDS011;52034;51.926;6.320;2022-12-20T04:47:03;8.00;;;6.23;;
58101;SDS011;52034;51.926;6.320;2022-12-20T04:48:04;9.57;;;6.13;;
58101;SDS011;52034;51.926;6.320;2022-12-20T04:49:10;6.88;;;5.47;;
58101;SDS011;52034;51.926;6.320;2022-12-20T04:50:13;6.68;;;5.63;;
58101;SDS011;52034;51.926;6.320;2022-12-20T04:51:16;6.80;;;5.43;;
58101;SDS011;52034;51.926;6.320;2022-12-20T04:52:17;7.40;;;5.65;;
58101;SDS011;52034;51.926;6.320;2022-12-20T04:53:36;7.25;;;5.68;;
58101;SDS011;52034;51.926;6.320;2022-12-20T04:56:03;6.30;;;5.30;;
58101;SDS011;52034;51.926;6.320;2022-12-20T04:57:04;7.90;;;6.30;;
58101;SDS011;52034;51.926;6.320;2022-12-20T04:58:04;8.83;;;5.57;;
58101;SDS011;52034;51.926;6.320;2022-12-20T04:59:05;7.53;;;6.00;;
58101;SDS011;52034;51.926;6.320;2022-12-20T05:00:06;9.27;;;5.83;;
58101;SDS011;52034;51.926;6.320;2022-12-20T05:01:07;5.55;;;4.90;;
58101;SDS011;52034;51.926;6.320;2022-12-20T05:02:16;8.32;;;5.95;;
58101;SDS011;52034;51.926;6.320;2022-12-20T05:03:23;7.95;;;5.70;;
58101;SDS011;52034;51.926;6.320;2022-12-20T05:04:24;7.20;;;5.95;;
58101;SDS011;52034;51.926;6.320;2022-12-20T05:05:25;7.33;;;5.83;;
58101;SDS011;52034;51.926;6.320;2022-12-20T05:06:27;6.15;;;5.45;;
58101;SDS011;52034;51.926;6.320;2022-12-20T05:07:28;7.13;;;5.50;;
58101;SDS011;52034;51.926;6.320;2022-12-20T05:08:30;7.35;;;5.53;;
58101;SDS011;52034;51.926;6.320;2022-12-20T05:09:30;5.77;;;5.17;;
58101;SDS011;52034;51.926;6.320;2022-12-20T05:10:31;5.93;;;5.37;;
58101;SDS011;52034;51.926;6.320;2022-12-20T05:11:34;7.07;;;5.13;;
58101;SDS011;52034;51.926;6.320;2022-12-20T05:12:36;6.40;;;5.38;;
58101;SDS011;52034;51.926;6.320;2022-12-20T05:13:37;8.70;;;5.97;;
58101;SDS011;52034;51.926;6.320;2022-12-20T05:14:40;8.43;;;6.28;;
58101;SDS011;52034;51.926;6.320;2022-12-20T05:15:41;6.73;;;5.80;;
58101;SDS011;52034;51.926;6.320;2022-12-20T05:16:41;5.70;;;5.20;;
58101;SDS011;52034;51.926;6.320;2022-12-20T05:17:42;7.37;;;5.60;;
58101;SDS011;52034;51.926;6.320;2022-12-20T05:18:43;5.80;;;5.28;;
58101;SDS011;52034;51.926;6.320;2022-12-20T05:19:44;6.67;;;5.93;;
58101;SDS011;52034;51.926;6.320;2022-12-20T05:20:47;6.93;;;5.68;;
58101;SDS011;52034;51.926;6.320;2022-12-20T05:21:47;6.07;;;5.13;;
58101;SDS011;52034;51.926;6.320;2022-12-20T05:23:09;7.78;;;5.18;;
58101;SDS011;52034;51.926;6.320;2022-12-20T05:24:38;8.52;;;5.13;;
58101;SDS011;52034;51.926;6.320;2022-12-20T05:26:04;6.07;;;4.70;;
58101;SDS011;52034;51.926;6.320;2022-12-20T05:27:16;7.78;;;5.47;;
58101;SDS011;52034;51.926;6.320;2022-12-20T05:28:17;4.17;;;3.83;;
58101;SDS011;52034;51.926;6.320;2022-12-20T05:29:17;6.97;;;5.10;;
58101;SDS011;52034;51.926;6.320;2022-12-20T05:30:18;6.10;;;5.50;;
58101;SDS011;52034;51.926;6.320;2022-12-20T05:31:18;8.43;;;6.15;;
58101;SDS011;52034;51.926;6.320;2022-12-20T05:32:19;8.00;;;5.23;;
58101;SDS011;52034;51.926;6.320;2022-12-20T05:33:19;6.30;;;5.70;;
58101;SDS011;52034;51.926;6.320;2022-12-20T05:34:19;7.90;;;5.80;;
58101;SDS011;52034;51.926;6.320;2022-12-20T05:35:25;6.60;;;5.35;;
58101;SDS011;52034;51.926;6.320;2022-12-20T05:36:31;9.43;;;5.95;;
58101;SDS011;52034;51.926;6.320;2022-12-20T05:37:33;9.40;;;5.93;;
58101;SDS011;52034;51.926;6.320;2022-12-20T05:38:41;10.63;;;5.72;;
58101;SDS011;52034;51.926;6.320;2022-12-20T05:39:47;8.88;;;5.25;;
58101;SDS011;52034;51.926;6.320;2022-12-20T05:40:53;6.68;;;5.95;;
58101;SDS011;52034;51.926;6.320;2022-12-20T05:41:53;5.70;;;4.80;;
58101;SDS011;52034;51.926;6.320;2022-12-20T05:42:56;6.05;;;5.45;;
58101;SDS011;52034;51.926;6.320;2022-12-20T05:44:03;8.27;;;6.00;;
58101;SDS011;52034;51.926;6.320;2022-12-20T05:45:08;9.63;;;5.65;;
58101;SDS011;52034;51.926;6.320;2022-12-20T05:46:17;12.90;;;5.93;;
58101;SDS011;52034;51.926;6.320;2022-12-20T05:47:27;8.27;;;6.22;;
58101;SDS011;52034;51.926;6.320;2022-12-20T05:48:37;6.32;;;5.30;;
58101;SDS011;52034;51.926;6.320;2022-12-20T05:49:38;7.03;;;6.03;;
58101;SDS011;52034;51.926;6.320;2022-12-20T05:50:41;7.88;;;5.93;;
58101;SDS011;52034;51.926;6.320;2022-12-20T05:51:59;7.43;;;5.43;;
58101;SDS011;52034;51.926;6.320;2022-12-20T05:53:01;8.68;;;5.60;;
58101;SDS011;52034;51.926;6.320;2022-12-20T05:54:01;9.60;;;6.07;;
58101;SDS011;52034;51.926;6.320;2022-12-20T05:55:20;6.82;;;5.57;;
58101;SDS011;52034;51.926;6.320;2022-12-20T05:56:21;7.23;;;5.60;;
58101;SDS011;52034;51.926;6.320;2022-12-20T05:57:21;7.33;;;5.33;;
58101;SDS011;52034;51.926;6.320;2022-12-20T05:58:22;10.07;;;5.97;;
58101;SDS011;52034;51.926;6.320;2022-12-20T05:59:27;9.65;;;6.07;;
58101;SDS011;52034;51.926;6.320;2022-12-20T06:00:28;10.30;;;6.50;;
58101;SDS011;52034;51.926;6.320;2022-12-20T06:01:28;6.80;;;5.73;;
58101;SDS011;52034;51.926;6.320;2022-12-20T06:02:32;7.70;;;6.10;;
58101;SDS011;52034;51.926;6.320;2022-12-20T06:03:36;7.35;;;6.10;;
58101;SDS011;52034;51.926;6.320;2022-12-20T06:04:41;8.23;;;5.80;;
58101;SDS011;52034;51.926;6.320;2022-12-20T06:05:49;6.70;;;6.00;;
58101;SDS011;52034;51.926;6.320;2022-12-20T06:06:55;9.23;;;5.57;;
58101;SDS011;52034;51.926;6.320;2022-12-20T06:07:56;6.82;;;6.03;;
58101;SDS011;52034;51.926;6.320;2022-12-20T06:08:58;6.40;;;5.80;;
58101;SDS011;52034;51.926;6.320;2022-12-20T06:10:13;8.15;;;6.10;;
58101;SDS011;52034;51.926;6.320;2022-12-20T06:11:26;7.32;;;6.55;;
58101;SDS011;52034;51.926;6.320;2022-12-20T06:12:34;7.90;;;5.65;;
58101;SDS011;52034;51.926;6.320;2022-12-20T06:13:34;8.53;;;6.07;;
58101;SDS011;52034;51.926;6.320;2022-12-20T06:14:35;8.07;;;6.20;;
58101;SDS011;52034;51.926;6.320;2022-12-20T06:15:35;7.07;;;6.27;;
58101;SDS011;52034;51.926;6.320;2022-12-20T06:17:38;7.40;;;5.90;;
58101;SDS011;52034;51.926;6.320;2022-12-20T06:18:40;7.63;;;5.82;;
58101;SDS011;52034;51.926;6.320;2022-12-20T06:19:40;8.57;;;5.53;;
58101;SDS011;52034;51.926;6.320;2022-12-20T06:20:42;6.70;;;5.88;;
58101;SDS011;52034;51.926;6.320;2022-12-20T06:21:50;8.00;;;5.90;;
58101;SDS011;52034;51.926;6.320;2022-12-20T06:22:53;7.75;;;5.80;;
58101;SDS011;52034;51.926;6.320;2022-12-20T06:23:53;8.33;;;5.90;;
58101;SDS011;52034;51.926;6.320;2022-12-20T06:24:54;6.28;;;5.68;;
58101;SDS011;52034;51.926;6.320;2022-12-20T06:25:59;6.80;;;6.10;;
58101;SDS011;52034;51.926;6.320;2022-12-20T06:27:04;7.18;;;6.50;;
58101;SDS011;52034;51.926;6.320;2022-12-20T06:28:06;6.75;;;5.95;;
58101;SDS011;52034;51.926;6.320;2022-12-20T06:29:07;8.07;;;5.93;;
58101;SDS011;52034;51.926;6.320;2022-12-20T06:30:17;7.95;;;6.05;;
58101;SDS011;52034;51.926;6.320;2022-12-20T06:31:28;8.82;;;6.85;;
58101;SDS011;52034;51.926;6.320;2022-12-20T06:32:29;7.90;;;6.15;;
58101;SDS011;52034;51.926;6.320;2022-12-20T06:33:29;8.67;;;6.10;;
58101;SDS011;52034;51.926;6.320;2022-12-20T06:34:32;6.33;;;5.73;;
58101;SDS011;52034;51.926;6.320;2022-12-20T06:35:33;9.75;;;6.50;;
58101;SDS011;52034;51.926;6.320;2022-12-20T06:36:34;9.13;;;6.63;;
58101;SDS011;52034;51.926;6.320;2022-12-20T06:37:34;8.25;;;6.20;;
58101;SDS011;52034;51.926;6.320;2022-12-20T06:38:35;8.90;;;6.37;;
58101;SDS011;52034;51.926;6.320;2022-12-20T06:39:36;9.23;;;6.27;;
58101;SDS011;52034;51.926;6.320;2022-12-20T06:40:38;10.88;;;6.10;;
58101;SDS011;52034;51.926;6.320;2022-12-20T06:41:38;8.30;;;5.93;;
58101;SDS011;52034;51.926;6.320;2022-12-20T06:42:40;7.88;;;5.68;;